createdAt,value
2023-05-07T00:01:15.308Z,17.63
2023-05-07T00:03:44.118Z,15.97
2023-05-07T00:06:13.755Z,13.27
2023-05-07T00:08:41.875Z,15.47
2023-05-07T00:11:10.000Z,19.67
2023-05-07T00:13:38.065Z,17.53
2023-05-07T00:16:08.126Z,12.93
2023-05-07T00:18:36.267Z,15.37
2023-05-07T00:21:04.246Z,17.97
2023-05-07T00:23:32.315Z,13.83
2023-05-07T00:26:00.397Z,15.80
2023-05-07T00:28:28.433Z,16.40
2023-05-07T00:30:56.630Z,21.13
2023-05-07T00:33:27.777Z,18.57
2023-05-07T00:35:56.387Z,16.87
2023-05-07T00:38:24.370Z,14.73
2023-05-07T00:40:52.887Z,15.47
2023-05-07T00:43:21.205Z,15.90
2023-05-07T00:45:51.705Z,14.00
2023-05-07T00:48:20.332Z,14.63
2023-05-07T00:50:50.329Z,19.17
2023-05-07T00:53:18.479Z,29.33
2023-05-07T00:55:46.668Z,15.30
2023-05-07T00:58:14.722Z,15.33
2023-05-07T01:00:42.943Z,22.50
2023-05-07T01:03:10.917Z,15.50
2023-05-07T01:05:39.934Z,25.93
2023-05-07T01:08:09.999Z,21.00
2023-05-07T01:10:37.952Z,21.87
2023-05-07T01:13:08.436Z,21.13
2023-05-07T01:15:36.507Z,15.90
2023-05-07T01:18:04.895Z,21.27
2023-05-07T01:20:32.926Z,20.03
2023-05-07T01:23:03.285Z,21.10
2023-05-07T01:25:31.793Z,16.97
2023-05-07T01:28:01.022Z,18.93
2023-05-07T01:30:30.471Z,16.87
2023-05-07T01:33:04.218Z,18.17
2023-05-07T01:35:38.244Z,16.80
2023-05-07T01:38:08.264Z,19.20
2023-05-07T01:40:36.607Z,21.13
2023-05-07T01:43:05.157Z,18.63
2023-05-07T01:45:34.098Z,11.57
2023-05-07T01:48:02.330Z,18.53
2023-05-07T01:50:30.909Z,20.13
2023-05-07T01:52:59.018Z,14.33
2023-05-07T01:55:28.655Z,16.53
2023-05-07T01:57:56.593Z,19.43
2023-05-07T02:00:25.249Z,19.30
2023-05-07T02:02:54.011Z,15.23
2023-05-07T02:05:22.507Z,16.20
2023-05-07T02:07:50.562Z,16.43
2023-05-07T02:10:18.688Z,14.50
2023-05-07T02:12:48.385Z,13.10
2023-05-07T02:15:16.533Z,16.50
2023-05-07T02:18:02.850Z,11.83
2023-05-07T02:20:31.083Z,13.23
2023-05-07T02:22:58.993Z,16.47
2023-05-07T02:25:26.938Z,16.57
2023-05-07T02:27:56.301Z,22.00
2023-05-07T02:30:24.794Z,20.63
2023-05-07T02:32:52.744Z,16.73
2023-05-07T02:35:20.928Z,14.17
2023-05-07T02:37:48.908Z,18.03
2023-05-07T02:40:16.777Z,18.67
2023-05-07T02:42:44.757Z,18.57
2023-05-07T02:45:15.473Z,17.83
2023-05-07T02:47:43.448Z,14.77
2023-05-07T02:50:12.202Z,16.90
2023-05-07T02:52:40.548Z,22.20
2023-05-07T02:55:09.341Z,12.70
2023-05-07T02:57:37.416Z,19.43
2023-05-07T03:00:15.914Z,14.13
2023-05-07T03:02:44.148Z,18.07
2023-05-07T03:05:12.894Z,19.87
2023-05-07T03:07:40.985Z,17.37
2023-05-07T03:10:09.851Z,18.83
2023-05-07T03:12:38.077Z,11.83
2023-05-07T03:15:06.796Z,15.20
2023-05-07T03:17:37.395Z,18.53
2023-05-07T03:20:06.510Z,22.37
2023-05-07T03:22:35.370Z,18.17
2023-05-07T03:25:03.396Z,19.13
2023-05-07T03:27:31.451Z,17.77
2023-05-07T03:29:59.400Z,20.97
2023-05-07T03:32:27.477Z,20.53
2023-05-07T03:34:56.919Z,12.77
2023-05-07T03:37:24.885Z,15.47
2023-05-07T03:39:52.846Z,17.43
2023-05-07T03:42:21.118Z,14.80
2023-05-07T03:44:49.125Z,16.07
2023-05-07T03:47:17.015Z,14.63
2023-05-07T03:49:44.930Z,17.80
2023-05-07T03:52:14.423Z,21.20
2023-05-07T03:54:42.333Z,22.47
2023-05-07T03:57:10.230Z,15.00
2023-05-07T03:59:38.248Z,41.83
2023-05-07T04:02:06.272Z,17.17
2023-05-07T04:04:34.285Z,13.93
2023-05-07T04:07:02.712Z,15.90
2023-05-07T04:09:32.247Z,17.63
2023-05-07T04:12:00.243Z,11.87
2023-05-07T04:14:28.211Z,15.23
2023-05-07T04:16:56.379Z,16.17
2023-05-07T04:19:24.360Z,19.87
2023-05-07T04:21:52.422Z,17.23
2023-05-07T04:24:20.441Z,16.77
2023-05-07T04:26:49.964Z,15.73
2023-05-07T04:29:18.032Z,15.33
2023-05-07T04:31:46.184Z,17.53
2023-05-07T04:34:15.291Z,15.50
2023-05-07T04:36:44.478Z,17.10
2023-05-07T04:39:12.754Z,15.90
2023-05-07T04:41:40.841Z,10.63
2023-05-07T04:44:10.397Z,15.77
2023-05-07T04:46:38.353Z,22.13
2023-05-07T04:49:06.866Z,14.53
2023-05-07T04:51:34.879Z,17.63
2023-05-07T04:54:02.891Z,18.20
2023-05-07T04:56:31.212Z,19.20
2023-05-07T04:58:59.276Z,13.33
2023-05-07T05:01:28.804Z,14.90
2023-05-07T05:03:56.982Z,20.13
2023-05-07T05:06:25.047Z,16.50
2023-05-07T05:08:53.075Z,23.17
2023-05-07T05:11:22.247Z,16.07
2023-05-07T05:13:52.229Z,15.63
2023-05-07T05:16:20.496Z,16.23
2023-05-07T05:18:50.141Z,22.63
2023-05-07T05:21:18.115Z,23.97
2023-05-07T05:23:46.410Z,21.97
2023-05-07T05:26:14.496Z,17.03
2023-05-07T05:28:42.547Z,16.20
2023-05-07T05:31:10.589Z,18.60
2023-05-07T05:33:38.628Z,22.67
2023-05-07T05:36:11.521Z,18.57
2023-05-07T05:38:39.643Z,16.00
2023-05-07T05:41:08.151Z,19.80
2023-05-07T05:43:36.351Z,13.13
2023-05-07T05:46:07.330Z,16.83
2023-05-07T05:48:35.571Z,20.60
2023-05-07T05:51:03.672Z,17.63
2023-05-07T05:53:33.302Z,14.20
2023-05-07T05:56:13.239Z,13.63
2023-05-07T05:58:49.865Z,17.23
2023-05-07T06:01:18.084Z,13.53
2023-05-07T06:04:00.504Z,12.93
2023-05-07T06:06:29.306Z,15.13
2023-05-07T06:08:59.089Z,13.80
2023-05-07T06:11:28.904Z,13.60
2023-05-07T06:13:57.011Z,13.40
2023-05-07T06:16:25.179Z,11.20
2023-05-07T06:18:53.272Z,11.93
2023-05-07T06:21:21.211Z,14.50
2023-05-07T06:23:49.412Z,14.10
2023-05-07T06:26:18.921Z,14.20
2023-05-07T06:28:46.930Z,15.27
2023-05-07T06:31:16.839Z,8.60
2023-05-07T06:33:46.254Z,11.00
2023-05-07T06:36:14.433Z,13.97
2023-05-07T06:38:42.371Z,14.03
2023-05-07T06:41:10.672Z,15.87
2023-05-07T06:43:40.074Z,12.43
2023-05-07T06:46:08.558Z,22.03
2023-05-07T06:48:36.596Z,19.37
2023-05-07T06:51:04.717Z,14.67
2023-05-07T06:53:33.012Z,14.67
2023-05-07T06:56:01.051Z,14.60
2023-05-07T06:58:29.093Z,17.57
2023-05-07T07:00:59.725Z,16.83
2023-05-07T07:03:27.702Z,14.27
2023-05-07T07:05:55.919Z,17.13
2023-05-07T07:08:24.450Z,15.13
2023-05-07T07:10:52.580Z,17.17
2023-05-07T07:13:20.756Z,13.33
2023-05-07T07:15:48.836Z,10.40
2023-05-07T07:18:18.359Z,19.50
2023-05-07T07:20:46.777Z,15.23
2023-05-07T07:23:14.949Z,18.10
2023-05-07T07:25:43.180Z,28.57
2023-05-07T07:28:12.497Z,16.83
2023-05-07T07:30:40.860Z,16.13
2023-05-07T07:33:09.227Z,16.53
2023-05-07T07:35:38.753Z,18.50
2023-05-07T07:38:06.827Z,20.03
2023-05-07T07:40:37.256Z,17.40
2023-05-07T07:43:05.974Z,10.90
2023-05-07T07:45:34.034Z,11.73
2023-05-07T07:48:02.152Z,11.90
2023-05-07T07:50:43.413Z,13.90
2023-05-07T07:53:15.031Z,19.33
2023-05-07T07:55:43.366Z,12.30
2023-05-07T07:58:11.434Z,15.83
2023-05-07T08:00:39.402Z,12.70
2023-05-07T08:03:08.517Z,11.40
2023-05-07T08:05:37.352Z,11.67
2023-05-07T08:08:05.983Z,12.13
2023-05-07T08:10:39.443Z,12.33
2023-05-07T08:13:07.627Z,14.50
2023-05-07T08:15:35.923Z,16.37
2023-05-07T08:18:04.514Z,9.83
2023-05-07T08:20:32.982Z,7.97
2023-05-07T08:23:01.099Z,4.87
2023-05-07T08:25:29.076Z,6.20
2023-05-07T08:27:58.731Z,8.10
2023-05-07T08:30:27.215Z,9.43
2023-05-07T08:32:55.491Z,6.47
2023-05-07T08:35:24.003Z,9.47
2023-05-07T08:37:51.985Z,8.33
2023-05-07T08:40:20.231Z,11.60
2023-05-07T08:42:51.319Z,8.87
2023-05-07T08:45:25.060Z,8.83
2023-05-07T08:47:57.766Z,8.63
2023-05-07T08:50:26.349Z,6.10
2023-05-07T08:52:54.661Z,8.27
2023-05-07T08:55:22.960Z,7.37
2023-05-07T08:57:51.189Z,6.40
2023-05-07T09:00:21.062Z,4.43
2023-05-07T09:02:49.363Z,2.83
2023-05-07T09:05:17.421Z,6.40
2023-05-07T09:07:45.588Z,2.77
2023-05-07T09:10:14.209Z,5.10
2023-05-07T09:12:42.419Z,3.43
2023-05-07T09:15:13.120Z,2.67
2023-05-07T09:17:43.597Z,5.37
2023-05-07T09:20:12.329Z,5.27
2023-05-07T09:22:40.643Z,5.50
2023-05-07T09:25:10.492Z,6.67
2023-05-07T09:27:39.437Z,3.63
2023-05-07T09:30:10.190Z,4.00
2023-05-07T09:32:40.207Z,1.87
2023-05-07T09:35:17.576Z,5.97
2023-05-07T09:37:46.109Z,2.17
2023-05-07T09:40:23.108Z,3.40
2023-05-07T09:42:51.919Z,3.50
2023-05-07T09:45:24.705Z,3.30
2023-05-07T09:47:55.809Z,1.00
2023-05-07T09:50:29.867Z,2.27
2023-05-07T09:52:59.374Z,2.37
2023-05-07T09:55:28.091Z,1.60
2023-05-07T09:57:56.759Z,3.47
2023-05-07T10:00:25.070Z,1.33
2023-05-07T10:02:54.722Z,5.27
2023-05-07T10:05:26.249Z,2.90
2023-05-07T10:07:55.205Z,2.70
2023-05-07T10:10:24.209Z,5.77
2023-05-07T10:12:53.053Z,6.63
2023-05-07T10:15:21.214Z,6.33
2023-05-07T10:17:50.590Z,4.37
2023-05-07T10:20:18.623Z,3.73
2023-05-07T10:22:49.757Z,6.63
2023-05-07T10:25:25.135Z,5.97
2023-05-07T10:27:56.539Z,2.87
2023-05-07T10:30:38.077Z,6.63
2023-05-07T10:33:10.323Z,4.10
2023-05-07T10:35:41.719Z,6.53
2023-05-07T10:38:11.766Z,5.23
2023-05-07T10:40:40.096Z,5.83
2023-05-07T10:43:10.879Z,8.93
2023-05-07T10:45:39.119Z,8.27
2023-05-07T10:48:29.770Z,7.17
2023-05-07T10:51:23.416Z,5.33
2023-05-07T10:54:23.054Z,7.13
2023-05-07T10:56:52.286Z,6.03
2023-05-07T10:59:35.081Z,5.97
2023-05-07T11:02:05.619Z,5.63
2023-05-07T11:04:36.349Z,5.57
2023-05-07T11:07:37.965Z,4.87
2023-05-07T11:10:09.161Z,6.63
2023-05-07T11:12:54.517Z,5.67
2023-05-07T11:15:45.293Z,3.97
2023-05-07T11:18:14.756Z,5.07
2023-05-07T11:20:57.278Z,5.80
2023-05-07T11:24:02.394Z,6.57
2023-05-07T11:26:43.283Z,5.20
2023-05-07T11:29:14.031Z,4.87
2023-05-07T11:31:42.378Z,5.47
2023-05-07T11:34:11.022Z,4.33
2023-05-07T11:36:45.372Z,6.03
2023-05-07T11:39:27.313Z,3.03
2023-05-07T11:41:58.421Z,3.03
2023-05-07T11:44:26.468Z,3.83
2023-05-07T11:46:54.932Z,6.33
2023-05-07T11:49:23.375Z,4.47
2023-05-07T11:51:51.612Z,4.27
2023-05-07T11:54:19.741Z,5.20
2023-05-07T11:56:49.145Z,7.33
2023-05-07T11:59:21.580Z,2.63
2023-05-07T12:01:50.385Z,5.27
2023-05-07T12:04:23.127Z,4.57
2023-05-07T12:06:52.134Z,3.33
2023-05-07T12:09:20.483Z,4.17
2023-05-07T12:11:48.978Z,3.27
2023-05-07T12:14:18.168Z,6.00
2023-05-07T12:16:48.715Z,6.70
2023-05-07T12:19:17.263Z,9.03
2023-05-07T12:21:45.806Z,4.00
2023-05-07T12:24:14.115Z,5.87
2023-05-07T12:26:43.228Z,4.57
2023-05-07T12:29:11.725Z,3.03
2023-05-07T12:31:43.713Z,3.67
2023-05-07T12:34:15.095Z,4.53
2023-05-07T12:36:43.930Z,6.17
2023-05-07T12:39:12.526Z,6.87
2023-05-07T12:41:55.705Z,6.33
2023-05-07T12:44:25.753Z,3.83
2023-05-07T12:46:54.096Z,3.97
2023-05-07T12:49:26.082Z,2.17
2023-05-07T12:51:55.503Z,4.20
2023-05-07T12:54:33.635Z,2.30
2023-05-07T12:57:05.927Z,4.73
2023-05-07T12:59:35.395Z,2.87
2023-05-07T13:02:03.669Z,1.90
2023-05-07T13:04:33.771Z,6.67
2023-05-07T13:07:02.226Z,3.60
2023-05-07T13:09:30.390Z,3.90
2023-05-07T13:12:01.070Z,2.40
2023-05-07T13:14:29.378Z,3.13
2023-05-07T13:16:57.879Z,2.97
2023-05-07T13:19:26.534Z,3.27
2023-05-07T13:21:56.210Z,3.30
2023-05-07T13:24:24.207Z,4.03
2023-05-07T13:26:52.290Z,2.60
2023-05-07T13:29:20.411Z,2.27
2023-05-07T13:31:49.795Z,2.33
2023-05-07T13:34:18.379Z,4.50
2023-05-07T13:36:46.471Z,3.05
2023-05-07T13:39:16.998Z,5.15
2023-05-07T13:41:45.086Z,4.97
2023-05-07T13:44:13.221Z,1.75
2023-05-07T13:46:41.231Z,1.95
2023-05-07T13:49:09.261Z,1.77
2023-05-07T13:51:37.350Z,3.85
2023-05-07T13:54:05.754Z,2.03
2023-05-07T13:56:35.236Z,2.45
2023-05-07T13:59:03.324Z,4.35
2023-05-07T14:01:31.471Z,4.07
2023-05-07T14:04:00.713Z,2.88
2023-05-07T14:06:29.048Z,3.10
2023-05-07T14:08:59.310Z,2.38
2023-05-07T14:11:27.555Z,2.03
2023-05-07T14:13:57.973Z,4.30
2023-05-07T14:16:26.263Z,2.28
2023-05-07T14:18:57.819Z,2.17
2023-05-07T14:21:26.871Z,2.28
2023-05-07T14:23:55.098Z,1.50
2023-05-07T14:26:24.371Z,4.65
2023-05-07T14:28:52.420Z,2.97
2023-05-07T14:31:22.073Z,4.22
2023-05-07T14:33:50.925Z,5.43
2023-05-07T14:36:21.088Z,3.77
2023-05-07T14:38:49.817Z,4.70
2023-05-07T14:41:18.339Z,2.27
2023-05-07T14:43:51.085Z,3.63
2023-05-07T14:46:19.871Z,3.80
2023-05-07T14:48:49.471Z,3.03
2023-05-07T14:51:17.620Z,2.90
2023-05-07T14:53:46.225Z,4.93
2023-05-07T14:56:14.435Z,4.87
2023-05-07T14:58:42.770Z,4.77
2023-05-07T15:01:10.922Z,3.53
2023-05-07T15:03:39.176Z,6.73
2023-05-07T15:06:09.526Z,6.30
2023-05-07T15:08:37.827Z,6.10
2023-05-07T15:11:05.935Z,5.93
2023-05-07T15:13:34.355Z,4.53
2023-05-07T15:16:02.579Z,5.30
2023-05-07T15:18:30.704Z,5.03
2023-05-07T15:20:59.848Z,6.20
2023-05-07T15:23:29.604Z,6.17
2023-05-07T15:25:58.504Z,5.60
2023-05-07T15:28:26.803Z,4.40
2023-05-07T15:30:56.289Z,4.77
2023-05-07T15:33:24.980Z,3.27
2023-05-07T15:35:53.043Z,6.97
2023-05-07T15:38:21.253Z,7.03
2023-05-07T15:40:51.161Z,3.63
2023-05-07T15:43:19.705Z,5.90
2023-05-07T15:45:47.881Z,4.17
2023-05-07T15:48:16.069Z,7.57
2023-05-07T15:50:44.530Z,5.67
2023-05-07T15:53:14.066Z,9.70
2023-05-07T15:55:44.579Z,6.50
2023-05-07T15:58:14.358Z,6.77
2023-05-07T16:00:42.964Z,7.00
2023-05-07T16:03:11.209Z,4.77
2023-05-07T16:05:39.938Z,6.00
2023-05-07T16:08:08.732Z,7.07
2023-05-07T16:10:36.835Z,6.53
2023-05-07T16:13:05.024Z,4.43
2023-05-07T16:15:35.196Z,6.00
2023-05-07T16:18:03.366Z,6.17
2023-05-07T16:20:31.702Z,3.03
2023-05-07T16:22:59.952Z,3.53
2023-05-07T16:25:28.059Z,4.77
2023-05-07T16:27:57.025Z,5.77
2023-05-07T16:30:25.734Z,3.03
2023-05-07T16:32:55.579Z,5.23
2023-05-07T16:35:23.766Z,5.27
2023-05-07T16:37:52.114Z,4.47
2023-05-07T16:40:20.432Z,4.47
2023-05-07T16:42:48.667Z,6.27
2023-05-07T16:45:17.250Z,6.10
2023-05-07T16:47:45.651Z,4.30
2023-05-07T16:50:15.423Z,5.27
2023-05-07T16:52:43.842Z,8.87
2023-05-07T16:55:12.962Z,3.40
2023-05-07T16:57:41.300Z,4.70
2023-05-07T17:00:11.821Z,4.17
2023-05-07T17:02:40.149Z,5.93
2023-05-07T17:05:09.275Z,7.17
2023-05-07T17:07:39.629Z,4.40
2023-05-07T17:10:09.088Z,6.17
2023-05-07T17:12:37.739Z,5.63
2023-05-07T17:15:07.139Z,8.30
2023-05-07T17:17:35.349Z,6.93
2023-05-07T17:20:03.800Z,4.20
2023-05-07T17:22:31.870Z,4.47
2023-05-07T17:25:03.683Z,5.70
2023-05-07T17:27:32.492Z,4.57
2023-05-07T17:30:00.550Z,5.33
2023-05-07T17:32:29.557Z,5.47
2023-05-07T17:34:57.699Z,4.17
2023-05-07T17:37:25.796Z,8.20
2023-05-07T17:39:54.782Z,5.33
2023-05-07T17:42:24.660Z,3.93
2023-05-07T17:44:53.039Z,5.47
2023-05-07T17:47:21.162Z,2.00
2023-05-07T17:49:49.428Z,9.87
2023-05-07T17:52:17.598Z,5.37
2023-05-07T17:54:45.779Z,5.50
2023-05-07T17:57:14.294Z,5.80
2023-05-07T17:59:44.208Z,6.10
2023-05-07T18:02:12.422Z,6.03
2023-05-07T18:04:40.532Z,3.17
2023-05-07T18:07:08.897Z,4.20
2023-05-07T18:12:36.651Z,2.47
2023-05-07T18:15:08.098Z,7.97
2023-05-07T18:17:36.852Z,5.73
2023-05-07T18:20:06.562Z,3.93
2023-05-07T18:28:30.457Z,4.73
2023-05-07T18:31:00.531Z,4.00
2023-05-07T18:33:29.080Z,3.27
2023-05-07T18:36:15.261Z,7.70
2023-05-07T18:38:45.246Z,6.10
2023-05-07T18:41:15.090Z,2.53
2023-05-07T18:43:45.398Z,4.70
2023-05-07T18:46:17.187Z,7.93
2023-05-07T18:48:47.601Z,6.50
2023-05-07T18:51:17.120Z,3.90
2023-05-07T18:53:48.033Z,2.93
2023-05-07T18:56:17.703Z,5.00
2023-05-07T18:58:46.647Z,8.90
2023-05-07T19:01:17.133Z,3.03
2023-05-07T19:03:46.032Z,6.80
2023-05-07T19:06:15.379Z,5.27
2023-05-07T19:08:44.280Z,4.80
2023-05-07T19:11:13.330Z,5.20
2023-05-07T19:13:41.359Z,3.63
2023-05-07T19:16:12.589Z,6.80
2023-05-07T19:18:43.789Z,2.83
2023-05-07T19:21:12.492Z,5.60
2023-05-07T19:23:43.753Z,4.60
2023-05-07T19:26:13.043Z,3.27
2023-05-07T19:28:45.500Z,6.43
2023-05-07T19:31:22.074Z,3.97
2023-05-07T19:33:52.245Z,6.70
2023-05-07T19:36:20.873Z,2.13
2023-05-07T19:38:50.454Z,5.07
2023-05-07T19:41:18.720Z,6.63
2023-05-07T19:43:46.825Z,4.80
2023-05-07T19:46:16.722Z,7.70
2023-05-07T19:48:45.812Z,4.07
2023-05-07T19:51:15.404Z,5.70
2023-05-07T19:53:45.063Z,5.57
2023-05-07T19:56:15.088Z,7.63
2023-05-07T19:58:46.244Z,2.47
2023-05-07T20:01:15.405Z,10.73
2023-05-07T20:03:43.654Z,4.87
2023-05-07T20:06:12.540Z,8.83
2023-05-07T20:08:43.438Z,10.30
2023-05-07T20:11:13.584Z,5.07
2023-05-07T20:13:41.839Z,11.00
2023-05-07T20:16:11.212Z,3.07
2023-05-07T20:18:39.491Z,3.67
2023-05-07T20:21:08.089Z,8.53
2023-05-07T20:23:36.417Z,5.27
2023-05-07T20:26:06.024Z,6.13
2023-05-07T20:28:34.972Z,5.80
2023-05-07T20:31:03.742Z,6.27
2023-05-07T20:33:32.140Z,6.37
2023-05-07T20:36:00.425Z,6.93
2023-05-07T20:38:30.641Z,7.50
2023-05-07T20:40:59.051Z,3.83
2023-05-07T20:43:29.345Z,6.63
2023-05-07T20:46:01.052Z,8.37
2023-05-07T20:48:30.947Z,5.07
2023-05-07T20:51:00.147Z,9.50
2023-05-07T20:53:29.484Z,8.03
2023-05-07T20:55:58.335Z,4.13
2023-05-07T20:58:29.355Z,8.83
2023-05-07T21:00:57.912Z,7.97
2023-05-07T21:03:26.120Z,5.37
2023-05-07T21:05:56.152Z,4.90
2023-05-07T21:08:25.148Z,5.00
2023-05-07T21:10:58.495Z,4.13
2023-05-07T21:13:28.661Z,6.73
2023-05-07T21:15:57.280Z,5.37
2023-05-07T21:18:26.943Z,4.90
2023-05-07T21:20:55.556Z,7.03
2023-05-07T21:23:23.926Z,5.03
2023-05-07T21:26:25.187Z,5.70
2023-05-07T21:29:01.659Z,7.00
2023-05-07T21:31:30.345Z,8.20
2023-05-07T21:33:58.709Z,4.30
2023-05-07T21:36:27.503Z,5.60
2023-05-07T21:38:55.662Z,4.60
2023-05-07T21:41:24.161Z,7.03
2023-05-07T21:43:52.709Z,6.20
2023-05-07T21:46:22.558Z,4.37
2023-05-07T21:48:50.612Z,8.70
2023-05-07T21:51:18.948Z,8.93
2023-05-07T21:53:48.086Z,8.50
2023-05-07T21:56:16.329Z,4.93
2023-05-07T21:58:44.591Z,4.10
2023-05-07T22:01:13.184Z,10.50
2023-05-07T22:03:43.011Z,7.97
2023-05-07T22:06:11.161Z,7.67
2023-05-07T22:08:39.459Z,7.37
2023-05-07T22:11:07.819Z,8.10
2023-05-07T22:13:36.023Z,8.87
2023-05-07T22:16:04.243Z,10.60
2023-05-07T22:18:32.462Z,8.93
2023-05-07T22:21:02.253Z,7.03
2023-05-07T22:23:30.552Z,6.27
2023-05-07T22:25:58.623Z,6.93
2023-05-07T22:28:26.997Z,10.07
2023-05-07T22:30:57.576Z,9.93
2023-05-07T22:33:28.513Z,8.37
2023-05-07T22:35:57.276Z,12.83
2023-05-07T22:38:27.488Z,5.73
2023-05-07T22:40:56.436Z,7.83
2023-05-07T22:43:27.339Z,12.03
2023-05-07T22:46:01.605Z,7.23
2023-05-07T22:48:30.551Z,7.03
2023-05-07T22:50:59.409Z,8.33
2023-05-07T22:53:31.522Z,6.30
2023-05-07T22:56:00.060Z,7.20
2023-05-07T22:58:28.759Z,9.63
2023-05-07T23:01:01.702Z,9.27
2023-05-07T23:06:24.960Z,6.83
2023-05-07T23:08:56.007Z,9.27
2023-05-07T23:11:24.786Z,8.03
2023-05-07T23:13:53.640Z,6.50
2023-05-07T23:16:22.219Z,6.27
2023-05-07T23:18:50.672Z,7.37
2023-05-07T23:21:19.236Z,4.07
2023-05-07T23:23:49.585Z,9.60
2023-05-07T23:26:20.969Z,5.77
2023-05-07T23:28:49.334Z,5.03
2023-05-07T23:31:21.045Z,6.20
2023-05-07T23:33:53.814Z,6.60
2023-05-07T23:36:22.279Z,7.47
2023-05-07T23:38:51.206Z,5.67
2023-05-07T23:41:21.817Z,5.97
2023-05-07T23:43:50.647Z,6.40
2023-05-07T23:46:25.730Z,5.80
2023-05-07T23:49:03.426Z,7.90
2023-05-07T23:51:32.486Z,5.00
2023-05-07T23:54:00.843Z,7.67
2023-05-07T23:56:30.867Z,6.70
2023-05-07T23:59:11.578Z,5.53
